Lorton, Nebraska
Current Conditions -  °F | °C
As of 5:55 AM on Monday 22 Dec 2014 (Local Time) from KAFK Reporting Station
Light Rain Light Rain  
Wind Chill: 36°   Ceiling: 400
Heat Index: 41°   Visibility: 3mi
Dew Point: 41°   Wind: 9mph
Humidity: 100%   Direction: 160°SSE
Pressure: 29.55"   Gusts: NA
Location:  40.6°N, 96.02°W
Report Text: KAFK 221155Z AUTO 16008KT 3SM -RA OVC004 05/05 A2955 RMK AO2 P0003 60004 70004 T00520052 10060 20052
Loading
Personal Weather Stations






























Interactive Weather Map New forecast layout! Learn more

10-Day Weather Forecast

Advertisements
Track Severe Weather on mobile